Time;durP1;ratioP1;P1;durP2;ratioP2;P2;SDS_P1;SDS_P2;PMS_P1;PMS_P2;Temp;Humidity;BMP_temperature;BMP_pressure;BME280_temperature;BME280_humidity;BME280_pressure;Samples;Min_cycle;Max_cycle;Signal;HPM_P1;HPM_P2
2021/05/28 00:01:05;;;;;;;2.33;1.58;;;;;;;;;;4970755;28;20093;-46
2021/05/28 00:03:31;;;;;;;2.20;1.25;;;;;;;;;;4972755;28;20109;-46
2021/05/28 00:05:57;;;;;;;1.50;1.10;;;;;;;;;;4991306;28;20026;-46
2021/05/28 00:08:23;;;;;;;1.98;1.40;;;;;;;;;;4988642;28;20101;-46
2021/05/28 00:10:49;;;;;;;1.65;1.38;;;;;;;;;;4990090;28;20444;-46
2021/05/28 00:13:15;;;;;;;3.15;1.38;;;;;;;;;;4990721;28;20062;-46
2021/05/28 00:15:41;;;;;;;2.45;1.70;;;;;;;;;;4991037;28;20065;-46
2021/05/28 00:18:08;;;;;;;5.10;1.20;;;;;;;;;;4981790;28;20030;-46
2021/05/28 00:20:35;;;;;;;2.90;1.42;;;;;;;;;;4970877;28;20463;-46
2021/05/28 00:23:01;;;;;;;2.15;1.30;;;;;;;;;;4987536;28;20057;-46
2021/05/28 00:25:28;;;;;;;5.35;1.63;;;;;;;;;;4990924;28;20066;-46
2021/05/28 00:27:55;;;;;;;1.58;1.05;;;;;;;;;;4977460;28;20072;-46
2021/05/28 00:30:21;;;;;;;1.80;1.40;;;;;;;;;;4973860;28;20027;-46
2021/05/28 00:32:47;;;;;;;7.53;1.20;;;;;;;;;;4982730;28;20363;-46
2021/05/28 00:35:13;;;;;;;3.58;1.23;;;;;;;;;;4994459;28;20026;-46
2021/05/28 00:37:39;;;;;;;2.75;1.20;;;;;;;;;;4975818;28;20114;-46
2021/05/28 00:40:05;;;;;;;1.75;1.10;;;;;;;;;;4975338;28;20118;-46
2021/05/28 00:42:32;;;;;;;1.30;1.20;;;;;;;;;;4974703;28;20103;-46
2021/05/28 00:44:58;;;;;;;2.00;1.25;;;;;;;;;;4974823;28;20497;-46
2021/05/28 00:47:24;;;;;;;4.72;1.67;;;;;;;;;;4974516;28;20071;-46
2021/05/28 00:49:50;;;;;;;2.22;1.10;;;;;;;;;;4984372;28;20066;-46
2021/05/28 00:52:16;;;;;;;4.15;1.08;;;;;;;;;;4974666;28;20041;-46
2021/05/28 00:54:43;;;;;;;1.95;1.30;;;;;;;;;;4974221;28;20038;-46
2021/05/28 00:57:09;;;;;;;4.30;1.15;;;;;;;;;;4974545;28;20412;-46
2021/05/28 00:59:37;;;;;;;1.63;1.15;;;;;;;;;;4975147;28;20162;-46
2021/05/28 01:02:03;;;;;;;2.72;1.10;;;;;;;;;;4973456;28;20089;-46
2021/05/28 01:04:29;;;;;;;1.10;1.00;;;;;;;;;;4982653;28;20415;-46
2021/05/28 01:06:55;;;;;;;3.90;1.10;;;;;;;;;;4993394;28;20030;-46
2021/05/28 01:09:21;;;;;;;2.38;1.60;;;;;;;;;;4993321;28;20027;-46
2021/05/28 01:11:47;;;;;;;2.55;1.20;;;;;;;;;;4990991;28;20081;-46
2021/05/28 01:14:13;;;;;;;1.23;1.05;;;;;;;;;;4993143;28;20081;-46
2021/05/28 01:16:39;;;;;;;2.97;1.10;;;;;;;;;;4993549;28;20023;-46
2021/05/28 01:19:05;;;;;;;1.08;1.08;;;;;;;;;;4992993;28;20037;-46
2021/05/28 01:21:32;;;;;;;2.13;1.15;;;;;;;;;;4990631;28;20335;-46
2021/05/28 01:23:58;;;;;;;1.15;1.00;;;;;;;;;;4993285;28;20104;-45
2021/05/28 01:26:24;;;;;;;3.33;1.23;;;;;;;;;;4993479;28;20428;-46
2021/05/28 01:28:50;;;;;;;1.85;1.25;;;;;;;;;;4992271;28;20041;-46
2021/05/28 01:31:16;;;;;;;1.58;1.30;;;;;;;;;;4991554;28;20109;-47
2021/05/28 01:33:43;;;;;;;2.75;1.10;;;;;;;;;;4991852;28;20121;-46
2021/05/28 01:36:09;;;;;;;1.77;1.40;;;;;;;;;;4992192;28;20018;-47
2021/05/28 01:38:36;;;;;;;2.33;1.10;;;;;;;;;;4993106;28;20117;-47
2021/05/28 01:41:02;;;;;;;1.60;1.17;;;;;;;;;;4991208;28;20026;-46
2021/05/28 01:43:28;;;;;;;1.48;0.98;;;;;;;;;;4980521;28;20030;-46
2021/05/28 01:45:54;;;;;;;1.38;1.00;;;;;;;;;;4973118;28;20026;-46
2021/05/28 01:48:20;;;;;;;2.22;1.40;;;;;;;;;;4973150;28;20023;-46
2021/05/28 01:50:47;;;;;;;1.70;1.20;;;;;;;;;;4978966;28;20052;-46
2021/05/28 01:53:23;;;;;;;3.00;1.60;;;;;;;;;;4988288;28;20027;-46
2021/05/28 01:55:50;;;;;;;1.88;1.35;;;;;;;;;;4973017;28;20444;-46
2021/05/28 01:58:17;;;;;;;5.35;1.10;;;;;;;;;;4991365;28;20475;-46
2021/05/28 02:00:44;;;;;;;2.55;1.58;;;;;;;;;;4991817;28;20057;-46
2021/05/28 02:03:10;;;;;;;5.25;1.42;;;;;;;;;;4991744;28;20436;-46
2021/05/28 02:05:37;;;;;;;3.83;1.58;;;;;;;;;;4991345;28;20414;-46
2021/05/28 02:08:03;;;;;;;2.22;1.30;;;;;;;;;;4992274;28;20077;-46
2021/05/28 02:10:30;;;;;;;1.25;1.15;;;;;;;;;;4991034;28;20460;-46
2021/05/28 02:12:57;;;;;;;4.78;1.55;;;;;;;;;;4990364;28;20037;-46
2021/05/28 02:15:23;;;;;;;5.95;1.50;;;;;;;;;;4982499;28;20077;-46
2021/05/28 02:17:52;;;;;;;2.92;1.75;;;;;;;;;;4998455;28;20060;-46
2021/05/28 02:20:18;;;;;;;8.90;1.50;;;;;;;;;;5011265;28;20034;-46
2021/05/28 02:22:44;;;;;;;4.95;1.50;;;;;;;;;;5011593;28;20025;-46
2021/05/28 02:25:11;;;;;;;5.15;1.60;;;;;;;;;;4996525;28;20719;-46
2021/05/28 02:27:37;;;;;;;1.42;1.02;;;;;;;;;;4983898;28;20030;-46
2021/05/28 02:30:06;;;;;;;3.88;1.50;;;;;;;;;;4991634;28;20030;-46
2021/05/28 02:32:33;;;;;;;3.13;1.48;;;;;;;;;;4991940;28;20022;-46
2021/05/28 02:34:59;;;;;;;3.63;1.50;;;;;;;;;;4991160;28;20033;-46
2021/05/28 02:37:25;;;;;;;1.58;1.30;;;;;;;;;;4973165;28;20026;-46
2021/05/28 02:39:51;;;;;;;1.90;1.40;;;;;;;;;;4972595;28;20023;-46
2021/05/28 02:42:17;;;;;;;3.15;1.60;;;;;;;;;;4975280;28;20056;-46
2021/05/28 02:44:43;;;;;;;1.65;1.33;;;;;;;;;;4991346;28;20363;-46
2021/05/28 02:47:09;;;;;;;1.55;1.30;;;;;;;;;;4989983;28;20141;-46
2021/05/28 02:49:36;;;;;;;3.80;1.50;;;;;;;;;;4991690;28;20035;-46
2021/05/28 02:52:05;;;;;;;1.33;1.23;;;;;;;;;;4990697;28;20022;-46
2021/05/28 02:54:31;;;;;;;2.78;1.60;;;;;;;;;;4990937;28;20104;-46
2021/05/28 02:56:57;;;;;;;2.08;1.40;;;;;;;;;;4990695;28;20026;-46
2021/05/28 02:59:24;;;;;;;2.10;1.23;;;;;;;;;;4991560;28;20026;-46
2021/05/28 03:01:50;;;;;;;3.67;1.10;;;;;;;;;;4990740;28;20046;-46
2021/05/28 03:04:16;;;;;;;1.35;1.20;;;;;;;;;;4991915;28;20101;-46
2021/05/28 03:06:42;;;;;;;2.42;1.40;;;;;;;;;;4991698;28;20391;-46
2021/05/28 03:09:08;;;;;;;3.15;1.88;;;;;;;;;;4973980;28;20082;-46
2021/05/28 03:11:34;;;;;;;2.25;1.60;;;;;;;;;;4971177;28;20023;-46
2021/05/28 03:14:01;;;;;;;4.80;1.70;;;;;;;;;;4972071;28;20110;-46
2021/05/28 03:16:27;;;;;;;4.78;1.52;;;;;;;;;;4971913;28;20420;-46
2021/05/28 03:21:37;;;;;;;2.90;1.60;;;;;;;;;;4975836;28;20040;-46
2021/05/28 03:24:04;;;;;;;2.72;1.50;;;;;;;;;;4991489;28;20026;-46
2021/05/28 03:26:30;;;;;;;1.85;1.52;;;;;;;;;;4988208;28;20449;-46
2021/05/28 03:28:57;;;;;;;1.92;1.20;;;;;;;;;;4972889;28;20031;-46
2021/05/28 03:31:23;;;;;;;2.90;1.23;;;;;;;;;;4970826;28;20414;-46
2021/05/28 03:33:50;;;;;;;1.85;1.10;;;;;;;;;;4971617;28;20473;-46
2021/05/28 03:36:16;;;;;;;2.58;1.67;;;;;;;;;;4979371;28;20518;-46
2021/05/28 03:38:43;;;;;;;3.08;1.30;;;;;;;;;;4977150;28;20039;-46
2021/05/28 03:41:09;;;;;;;5.78;1.45;;;;;;;;;;4980990;28;20038;-46
2021/05/28 03:43:35;;;;;;;3.85;1.65;;;;;;;;;;4988281;28;20023;-46
2021/05/28 03:46:02;;;;;;;2.88;1.40;;;;;;;;;;4991267;28;20030;-46
2021/05/28 03:48:28;;;;;;;5.18;1.55;;;;;;;;;;4987190;28;20039;-46
2021/05/28 03:50:54;;;;;;;4.53;1.30;;;;;;;;;;4982372;28;20117;-46
2021/05/28 03:53:20;;;;;;;5.78;1.73;;;;;;;;;;4991086;28;20026;-46
2021/05/28 03:55:46;;;;;;;2.33;1.63;;;;;;;;;;4990380;28;20027;-46
2021/05/28 03:58:12;;;;;;;2.35;1.67;;;;;;;;;;4990703;28;20444;-46
2021/05/28 04:00:38;;;;;;;4.35;1.75;;;;;;;;;;4987689;28;20041;-46
2021/05/28 04:03:04;;;;;;;3.85;1.48;;;;;;;;;;4971515;28;20027;-46
2021/05/28 04:05:30;;;;;;;11.77;1.73;;;;;;;;;;4975211;28;20030;-46
2021/05/28 04:07:56;;;;;;;3.70;1.77;;;;;;;;;;4984295;28;20057;-46
2021/05/28 04:10:22;;;;;;;2.13;1.15;;;;;;;;;;4993377;28;20038;-46
2021/05/28 04:12:48;;;;;;;5.35;1.80;;;;;;;;;;4983582;28;20034;-46
2021/05/28 04:15:14;;;;;;;3.13;1.75;;;;;;;;;;4993842;28;20034;-46
2021/05/28 04:17:40;;;;;;;6.07;2.53;;;;;;;;;;4975043;28;20058;-46
2021/05/28 04:20:07;;;;;;;3.13;1.90;;;;;;;;;;4982588;28;20058;-46
2021/05/28 04:22:33;;;;;;;2.95;1.70;;;;;;;;;;4992459;28;20027;-45
2021/05/28 04:24:59;;;;;;;2.80;1.92;;;;;;;;;;4994072;28;20076;-46
2021/05/28 04:27:25;;;;;;;6.07;1.90;;;;;;;;;;4993560;28;20061;-46
2021/05/28 04:29:51;;;;;;;3.88;1.83;;;;;;;;;;4994209;28;20061;-46
2021/05/28 04:32:17;;;;;;;4.32;2.13;;;;;;;;;;4993243;28;20023;-46
2021/05/28 04:34:43;;;;;;;4.40;2.30;;;;;;;;;;4975093;28;20037;-46
2021/05/28 04:37:10;;;;;;;5.75;3.28;;;;;;;;;;4974391;28;20479;-46
2021/05/28 04:39:36;;;;;;;5.10;2.42;;;;;;;;;;4974422;28;20031;-46
2021/05/28 04:42:02;;;;;;;4.15;2.00;;;;;;;;;;4974109;28;20023;-46
2021/05/28 04:44:28;;;;;;;6.20;1.92;;;;;;;;;;4986757;28;20117;-46
2021/05/28 04:46:55;;;;;;;4.85;1.75;;;;;;;;;;4994244;28;20031;-46
2021/05/28 04:49:21;;;;;;;3.22;1.80;;;;;;;;;;4993990;28;20049;-46
2021/05/28 04:51:48;;;;;;;2.42;1.67;;;;;;;;;;4993023;28;20023;-46
2021/05/28 04:54:14;;;;;;;3.33;1.60;;;;;;;;;;4992750;28;20057;-47
2021/05/28 04:56:40;;;;;;;5.20;2.60;;;;;;;;;;4993920;28;20023;-46
2021/05/28 04:59:06;;;;;;;5.88;2.72;;;;;;;;;;4993435;28;20099;-46
2021/05/28 05:01:32;;;;;;;3.80;2.00;;;;;;;;;;4991301;28;20101;-46
2021/05/28 05:03:58;;;;;;;3.50;1.65;;;;;;;;;;4993776;28;20460;-46
2021/05/28 05:06:24;;;;;;;2.33;1.70;;;;;;;;;;4991628;28;20046;-46
2021/05/28 05:08:50;;;;;;;5.50;1.85;;;;;;;;;;4993404;28;20038;-46
2021/05/28 05:11:16;;;;;;;7.70;3.63;;;;;;;;;;4992669;28;20019;-46
2021/05/28 05:13:42;;;;;;;8.20;4.47;;;;;;;;;;4993673;28;20046;-46
2021/05/28 05:16:08;;;;;;;6.22;4.10;;;;;;;;;;4991141;28;20026;-46
2021/05/28 05:18:34;;;;;;;10.05;5.03;;;;;;;;;;4993520;28;20045;-47
2021/05/28 05:21:00;;;;;;;7.88;4.60;;;;;;;;;;4992573;28;20419;-46
2021/05/28 05:23:26;;;;;;;9.00;4.93;;;;;;;;;;4993033;28;20042;-46
2021/05/28 05:25:52;;;;;;;8.02;4.68;;;;;;;;;;4991473;28;20046;-46
2021/05/28 05:28:18;;;;;;;9.82;5.65;;;;;;;;;;4976962;28;20045;-46
2021/05/28 05:30:44;;;;;;;10.60;5.63;;;;;;;;;;4972873;28;20342;-46
2021/05/28 05:33:11;;;;;;;7.65;5.43;;;;;;;;;;4973310;28;20066;-46
2021/05/28 05:35:37;;;;;;;12.02;5.63;;;;;;;;;;4975037;28;20058;-46
2021/05/28 05:38:07;;;;;;;8.73;5.28;;;;;;;;;;4992921;28;20085;-46
2021/05/28 05:40:34;;;;;;;10.43;6.15;;;;;;;;;;4992012;28;20036;-46
2021/05/28 05:43:00;;;;;;;10.88;5.60;;;;;;;;;;4993115;28;20288;-46
2021/05/28 05:45:26;;;;;;;9.27;5.45;;;;;;;;;;4992813;28;20081;-46
2021/05/28 05:47:52;;;;;;;12.05;6.13;;;;;;;;;;4978129;28;20019;-46
2021/05/28 05:50:18;;;;;;;13.60;6.32;;;;;;;;;;4972415;28;20109;-46
2021/05/28 05:52:44;;;;;;;9.98;6.10;;;;;;;;;;4973346;28;20117;-46
2021/05/28 05:55:11;;;;;;;9.13;5.72;;;;;;;;;;4973646;28;20058;-46
2021/05/28 05:57:37;;;;;;;10.63;6.15;;;;;;;;;;4980927;28;20733;-46
2021/05/28 06:00:05;;;;;;;12.45;5.68;;;;;;;;;;4992299;28;20326;-46
2021/05/28 06:02:32;;;;;;;11.25;5.93;;;;;;;;;;4973115;28;20027;-46
2021/05/28 06:04:58;;;;;;;14.25;6.82;;;;;;;;;;4973361;28;20042;-47
2021/05/28 06:07:24;;;;;;;12.52;6.78;;;;;;;;;;4977607;28;20034;-46
2021/05/28 06:09:50;;;;;;;20.65;7.63;;;;;;;;;;4973504;28;20031;-46
2021/05/28 06:12:16;;;;;;;11.45;6.80;;;;;;;;;;4972395;28;20048;-46
2021/05/28 06:14:42;;;;;;;10.02;6.45;;;;;;;;;;4973116;28;20105;-46
2021/05/28 06:17:08;;;;;;;10.85;6.60;;;;;;;;;;4972664;28;20121;-46
2021/05/28 06:19:34;;;;;;;14.40;6.88;;;;;;;;;;4973428;28;20166;-45
2021/05/28 06:22:00;;;;;;;10.98;6.80;;;;;;;;;;4972383;28;20060;-46
2021/05/28 06:24:26;;;;;;;11.73;7.13;;;;;;;;;;4973119;28;20031;-46
2021/05/28 06:26:52;;;;;;;12.18;6.95;;;;;;;;;;4972683;28;20027;-47
2021/05/28 06:29:18;;;;;;;12.45;7.35;;;;;;;;;;4978262;28;20407;-46
2021/05/28 06:31:44;;;;;;;14.50;7.00;;;;;;;;;;4991364;28;20030;-46
2021/05/28 06:34:10;;;;;;;11.70;6.53;;;;;;;;;;4972121;28;20453;-46
2021/05/28 06:36:36;;;;;;;12.32;6.85;;;;;;;;;;4972817;28;20041;-46
2021/05/28 06:39:03;;;;;;;12.40;7.40;;;;;;;;;;4972669;28;20427;-46
2021/05/28 06:41:29;;;;;;;13.38;6.65;;;;;;;;;;4972982;28;20181;-45
2021/05/28 06:43:55;;;;;;;11.57;6.15;;;;;;;;;;4972636;28;20105;-46
2021/05/28 06:46:21;;;;;;;12.90;5.90;;;;;;;;;;4972499;28;20473;-45
2021/05/28 06:48:46;;;;;;;9.80;6.30;;;;;;;;;;4972168;28;20043;-46
2021/05/28 06:51:14;;;;;;;11.65;5.30;;;;;;;;;;4972858;28;20669;-46
2021/05/28 06:53:40;;;;;;;14.52;5.97;;;;;;;;;;4973855;28;20034;-46
2021/05/28 06:56:07;;;;;;;9.55;5.30;;;;;;;;;;4981347;28;20030;-46
2021/05/28 06:58:33;;;;;;;7.50;4.90;;;;;;;;;;4972442;28;20023;-45
2021/05/28 07:00:59;;;;;;;11.60;5.65;;;;;;;;;;4971488;28;20030;-46
2021/05/28 07:03:25;;;;;;;8.88;5.82;;;;;;;;;;4978701;28;20022;-46
2021/05/28 07:05:51;;;;;;;11.68;6.20;;;;;;;;;;4972544;28;20094;-46
2021/05/28 07:08:17;;;;;;;22.92;5.63;;;;;;;;;;4976791;28;20460;-45
2021/05/28 07:10:43;;;;;;;8.15;5.38;;;;;;;;;;4971436;28;20061;-46
2021/05/28 07:13:09;;;;;;;13.98;6.40;;;;;;;;;;4971812;28;20031;-46
2021/05/28 07:15:38;;;;;;;7.38;4.70;;;;;;;;;;4972985;28;20081;-46
2021/05/28 07:18:04;;;;;;;9.73;6.05;;;;;;;;;;4971611;28;20380;-46
2021/05/28 07:20:30;;;;;;;9.18;5.70;;;;;;;;;;4971834;28;20023;-46
2021/05/28 07:22:56;;;;;;;10.05;5.80;;;;;;;;;;4980974;28;20026;-45
2021/05/28 07:25:22;;;;;;;8.65;5.20;;;;;;;;;;4989503;28;20041;-46
2021/05/28 07:27:48;;;;;;;14.30;6.07;;;;;;;;;;4978379;28;20376;-46
2021/05/28 07:30:14;;;;;;;8.48;5.85;;;;;;;;;;4971074;28;20023;-46
2021/05/28 07:32:41;;;;;;;7.60;4.82;;;;;;;;;;4971735;28;20023;-46
2021/05/28 07:35:08;;;;;;;9.38;5.32;;;;;;;;;;4972117;28;20460;-45
2021/05/28 07:37:34;;;;;;;7.93;4.78;;;;;;;;;;4973132;28;20026;-46
2021/05/28 07:40:00;;;;;;;8.23;5.22;;;;;;;;;;4980099;28;20486;-46
2021/05/28 07:42:26;;;;;;;10.23;4.78;;;;;;;;;;4994634;28;20046;-46
2021/05/28 07:44:52;;;;;;;8.65;5.50;;;;;;;;;;4994957;28;20420;-46
2021/05/28 07:47:18;;;;;;;9.32;5.07;;;;;;;;;;4993383;28;20157;-45
2021/05/28 07:49:44;;;;;;;8.63;5.13;;;;;;;;;;4992674;28;20041;-46
2021/05/28 07:52:10;;;;;;;7.70;4.88;;;;;;;;;;4974865;28;20031;-46
2021/05/28 07:54:36;;;;;;;6.85;4.72;;;;;;;;;;4975631;28;20046;-46
2021/05/28 07:57:03;;;;;;;10.15;4.43;;;;;;;;;;4976448;28;20019;-46
2021/05/28 07:59:29;;;;;;;6.95;4.18;;;;;;;;;;4974767;28;20027;-46
2021/05/28 08:01:55;;;;;;;5.97;3.88;;;;;;;;;;4975229;28;20023;-46
2021/05/28 08:04:21;;;;;;;6.95;4.20;;;;;;;;;;4990254;28;20045;-45
2021/05/28 08:06:48;;;;;;;7.75;4.35;;;;;;;;;;4994997;28;20022;-46
2021/05/28 08:09:14;;;;;;;4.95;3.50;;;;;;;;;;4978281;28;20043;-46
2021/05/28 08:11:40;;;;;;;6.90;3.78;;;;;;;;;;4974292;28;20516;-46
2021/05/28 08:14:06;;;;;;;9.13;4.13;;;;;;;;;;4974078;28;20078;-46
2021/05/28 08:16:33;;;;;;;9.95;3.80;;;;;;;;;;4975862;28;20030;-46
2021/05/28 08:18:59;;;;;;;10.23;4.07;;;;;;;;;;4975631;28;20023;-46
2021/05/28 08:21:25;;;;;;;10.95;4.40;;;;;;;;;;4974556;28;20428;-46
2021/05/28 08:23:51;;;;;;;7.10;4.45;;;;;;;;;;4974665;28;20068;-46
2021/05/28 08:26:17;;;;;;;11.88;4.30;;;;;;;;;;4975913;28;20030;-46
2021/05/28 08:28:43;;;;;;;8.05;3.80;;;;;;;;;;4992425;28;20046;-46
2021/05/28 08:31:10;;;;;;;5.40;3.92;;;;;;;;;;4993262;28;20041;-46
2021/05/28 08:33:37;;;;;;;14.02;4.28;;;;;;;;;;4993815;28;20521;-46
2021/05/28 08:36:03;;;;;;;7.35;4.45;;;;;;;;;;4993929;28;20033;-46
2021/05/28 08:38:29;;;;;;;8.15;4.25;;;;;;;;;;4994120;28;20031;-46
2021/05/28 08:40:55;;;;;;;7.53;4.82;;;;;;;;;;4991735;28;20105;-46
2021/05/28 08:43:21;;;;;;;10.07;3.78;;;;;;;;;;4994470;28;20030;-46
2021/05/28 08:45:48;;;;;;;10.15;5.00;;;;;;;;;;4993220;28;20352;-46
2021/05/28 08:48:16;;;;;;;8.38;4.82;;;;;;;;;;4993041;28;20393;-46
2021/05/28 08:50:43;;;;;;;9.63;5.03;;;;;;;;;;4990662;28;20026;-46
2021/05/28 08:53:10;;;;;;;10.65;4.63;;;;;;;;;;4993976;28;20037;-46
2021/05/28 08:55:37;;;;;;;6.38;3.60;;;;;;;;;;4993832;28;20061;-46
2021/05/28 08:58:07;;;;;;;7.50;4.40;;;;;;;;;;4993935;28;20025;-46
2021/05/28 09:00:34;;;;;;;6.00;4.07;;;;;;;;;;4991364;28;20470;-45
2021/05/28 09:03:19;;;;;;;4.20;3.63;;;;;;;;;;4989012;28;20027;-46
2021/05/28 09:05:45;;;;;;;9.75;4.03;;;;;;;;;;4974199;28;20778;-46
2021/05/28 09:08:11;;;;;;;6.38;4.35;;;;;;;;;;4985460;28;20030;-46
2021/05/28 09:10:38;;;;;;;5.80;3.85;;;;;;;;;;4992599;28;20034;-45
2021/05/28 09:13:10;;;;;;;7.00;4.10;;;;;;;;;;4993134;28;20026;-46
2021/05/28 09:15:36;;;;;;;5.65;3.67;;;;;;;;;;4993319;28;20031;-46
2021/05/28 09:18:03;;;;;;;10.45;3.88;;;;;;;;;;4993488;28;20360;-46
2021/05/28 09:20:29;;;;;;;6.47;3.75;;;;;;;;;;4992432;28;20357;-46
2021/05/28 09:23:11;;;;;;;4.88;3.22;;;;;;;;;;4991921;28;20037;-46
2021/05/28 09:25:54;;;;;;;6.55;3.55;;;;;;;;;;4993745;28;20096;-46
2021/05/28 09:28:20;;;;;;;6.93;2.90;;;;;;;;;;4975364;28;20605;-46
2021/05/28 09:30:53;;;;;;;7.25;3.63;;;;;;;;;;4972996;28;20038;-46
2021/05/28 09:33:20;;;;;;;6.55;3.72;;;;;;;;;;4974942;28;20329;-46
2021/05/28 09:35:46;;;;;;;4.18;3.35;;;;;;;;;;4973647;28;20105;-46
2021/05/28 09:38:20;;;;;;;6.20;3.30;;;;;;;;;;4985419;28;20031;-46
2021/05/28 09:40:46;;;;;;;9.43;4.03;;;;;;;;;;4992337;28;20363;-45
2021/05/28 09:43:14;;;;;;;5.35;3.58;;;;;;;;;;4989853;28;20034;-46
2021/05/28 09:45:41;;;;;;;6.47;4.03;;;;;;;;;;4973477;28;20038;-46
2021/05/28 09:48:09;;;;;;;5.88;3.58;;;;;;;;;;4973696;28;20031;-46
2021/05/28 09:50:42;;;;;;;8.45;4.18;;;;;;;;;;4972533;28;20101;-46
2021/05/28 09:53:24;;;;;;;6.75;3.42;;;;;;;;;;4985314;28;20063;-46
2021/05/28 09:55:51;;;;;;;6.00;3.72;;;;;;;;;;4992163;28;20030;-45
2021/05/28 09:58:17;;;;;;;6.50;3.33;;;;;;;;;;4992150;28;20062;-46
2021/05/28 10:00:43;;;;;;;6.72;4.47;;;;;;;;;;4990214;28;20061;-46
2021/05/28 10:03:09;;;;;;;4.57;2.78;;;;;;;;;;4991567;28;20376;-46
2021/05/28 10:05:38;;;;;;;4.43;3.30;;;;;;;;;;4991785;28;20034;-46
2021/05/28 10:08:09;;;;;;;5.93;4.20;;;;;;;;;;4992991;28;20027;-46
2021/05/28 10:10:36;;;;;;;5.95;3.42;;;;;;;;;;4981034;28;20038;-46
2021/05/28 10:13:10;;;;;;;4.93;3.25;;;;;;;;;;4973165;28;20131;-46
2021/05/28 10:15:36;;;;;;;8.27;3.35;;;;;;;;;;4973541;28;20038;-46
2021/05/28 10:18:05;;;;;;;5.28;3.72;;;;;;;;;;4972963;28;20037;-46
2021/05/28 10:20:32;;;;;;;5.57;3.30;;;;;;;;;;4973045;28;20027;-46
2021/05/28 10:22:58;;;;;;;5.28;3.22;;;;;;;;;;4973404;28;20267;-46
2021/05/28 10:25:24;;;;;;;4.80;2.35;;;;;;;;;;4972936;28;20037;-46
2021/05/28 10:27:58;;;;;;;6.60;3.25;;;;;;;;;;4985972;28;20034;-46
2021/05/28 10:30:25;;;;;;;6.47;3.25;;;;;;;;;;4990983;28;20042;-46
2021/05/28 10:33:15;;;;;;;7.03;3.42;;;;;;;;;;4973544;28;20029;-46
2021/05/28 10:35:45;;;;;;;4.28;2.65;;;;;;;;;;4968495;28;20365;-46
2021/05/28 10:38:11;;;;;;;;;;;;;;;;;;4992382;28;20037;-46
2021/05/28 10:40:37;;;;;;;4.45;3.22;;;;;;;;;;4991413;28;19906;-46
2021/05/28 10:43:07;;;;;;;6.32;3.25;;;;;;;;;;4977096;28;20031;-46
2021/05/28 10:45:52;;;;;;;4.87;2.40;;;;;;;;;;4975393;28;20037;-46
2021/05/28 10:48:38;;;;;;;3.28;1.95;;;;;;;;;;4991950;28;20284;-46
2021/05/28 10:51:05;;;;;;;7.47;2.50;;;;;;;;;;4990202;28;20042;-46
2021/05/28 10:53:31;;;;;;;7.45;3.00;;;;;;;;;;4990097;28;20092;-46
2021/05/28 10:56:00;;;;;;;5.47;2.92;;;;;;;;;;4991611;28;20019;-46
2021/05/28 10:58:45;;;;;;;3.53;2.70;;;;;;;;;;4991954;28;20014;-46
2021/05/28 11:01:30;;;;;;;6.65;3.42;;;;;;;;;;4990795;28;20038;-46
2021/05/28 11:03:56;;;;;;;3.83;2.53;;;;;;;;;;4980179;28;20027;-46
2021/05/28 11:06:22;;;;;;;4.72;2.90;;;;;;;;;;4976679;28;20030;-46
2021/05/28 11:08:49;;;;;;;4.57;2.65;;;;;;;;;;4991542;28;20388;-46
2021/05/28 11:11:33;;;;;;;4.35;1.83;;;;;;;;;;4990908;28;20042;-46
2021/05/28 11:14:00;;;;;;;5.80;2.60;;;;;;;;;;4984496;28;20038;-46
2021/05/28 11:16:27;;;;;;;5.93;3.35;;;;;;;;;;4972164;28;20074;-46
2021/05/28 11:18:53;;;;;;;3.67;2.40;;;;;;;;;;4971880;28;20125;-46
2021/05/28 11:21:20;;;;;;;4.43;2.38;;;;;;;;;;4971445;28;20416;-46
2021/05/28 11:23:47;;;;;;;7.32;2.45;;;;;;;;;;4972434;28;20038;-45
2021/05/28 11:26:18;;;;;;;4.07;2.63;;;;;;;;;;4972124;28;20468;-46
2021/05/28 11:28:58;;;;;;;3.35;2.40;;;;;;;;;;4991659;28;20117;-46
2021/05/28 11:31:25;;;;;;;4.20;2.53;;;;;;;;;;4989773;28;20042;-46
2021/05/28 11:33:55;;;;;;;3.65;2.63;;;;;;;;;;4991063;28;20018;-46
2021/05/28 11:36:35;;;;;;;3.85;2.35;;;;;;;;;;4989717;28;20027;-46
2021/05/28 11:39:01;;;;;;;6.47;2.72;;;;;;;;;;4991420;28;20035;-46
2021/05/28 11:41:46;;;;;;;6.80;3.38;;;;;;;;;;4990066;28;20113;-46
2021/05/28 11:44:13;;;;;;;3.08;2.47;;;;;;;;;;4991036;28;20041;-46
2021/05/28 11:46:43;;;;;;;5.35;2.53;;;;;;;;;;4977654;28;20065;-46
2021/05/28 11:49:09;;;;;;;8.07;3.08;;;;;;;;;;4971431;28;20481;-46
2021/05/28 11:51:36;;;;;;;4.32;2.67;;;;;;;;;;4970760;28;20031;-46
2021/05/28 11:54:02;;;;;;;3.83;2.50;;;;;;;;;;4971193;28;20030;-46
2021/05/28 11:56:28;;;;;;;10.05;2.72;;;;;;;;;;4972740;28;20468;-46
2021/05/28 11:58:54;;;;;;;5.88;3.05;;;;;;;;;;4971553;28;20475;-46
2021/05/28 12:01:20;;;;;;;5.53;2.80;;;;;;;;;;4988528;28;20114;-46
2021/05/28 12:03:46;;;;;;;6.45;2.90;;;;;;;;;;4980460;28;20365;-46
2021/05/28 12:06:13;;;;;;;3.10;2.40;;;;;;;;;;4971767;28;20027;-47
2021/05/28 12:08:41;;;;;;;8.95;2.72;;;;;;;;;;4986551;28;20031;-46
2021/05/28 12:11:08;;;;;;;3.53;2.67;;;;;;;;;;4990323;28;20364;-46
2021/05/28 12:13:36;;;;;;;6.57;2.40;;;;;;;;;;4991093;28;20065;-47
2021/05/28 12:16:04;;;;;;;5.43;1.88;;;;;;;;;;4990723;28;20030;-47
2021/05/28 12:18:31;;;;;;;4.45;2.10;;;;;;;;;;4978324;28;20035;-46
2021/05/28 12:21:17;;;;;;;3.58;2.35;;;;;;;;;;4970643;28;20035;-46
2021/05/28 12:23:47;;;;;;;4.18;2.42;;;;;;;;;;4971802;28;20034;-47
2021/05/28 12:26:17;;;;;;;3.75;2.30;;;;;;;;;;4983840;28;20041;-46
2021/05/28 12:28:48;;;;;;;4.35;2.83;;;;;;;;;;4994573;28;20049;-46
2021/05/28 12:31:15;;;;;;;4.25;2.60;;;;;;;;;;4991942;28;20475;-45
2021/05/28 12:33:47;;;;;;;3.40;2.40;;;;;;;;;;4994342;28;20042;-46
2021/05/28 12:36:14;;;;;;;4.65;2.75;;;;;;;;;;4994249;28;20104;-46
2021/05/28 12:38:51;;;;;;;3.33;2.40;;;;;;;;;;4992817;28;20148;-46
2021/05/28 12:41:18;;;;;;;3.95;2.83;;;;;;;;;;4993672;28;20023;-46
2021/05/28 12:43:44;;;;;;;4.22;2.55;;;;;;;;;;4994139;28;20033;-46
2021/05/28 12:46:19;;;;;;;2.88;1.90;;;;;;;;;;4993983;28;20093;-46
2021/05/28 12:48:52;;;;;;;5.18;1.98;;;;;;;;;;4994032;28;20136;-46
2021/05/28 12:51:20;;;;;;;4.30;2.20;;;;;;;;;;4973488;28;20027;-46
2021/05/28 12:53:47;;;;;;;7.55;2.35;;;;;;;;;;4977040;28;20057;-46
2021/05/28 12:56:23;;;;;;;4.32;3.10;;;;;;;;;;4993891;28;20337;-46
2021/05/28 12:58:50;;;;;;;7.40;2.00;;;;;;;;;;4993505;28;20153;-46
2021/05/28 13:01:17;;;;;;;4.78;2.65;;;;;;;;;;4993306;28;20096;-46
2021/05/28 13:03:45;;;;;;;2.85;1.98;;;;;;;;;;4993648;28;20037;-46
2021/05/28 13:06:23;;;;;;;2.40;2.20;;;;;;;;;;4976072;28;20034;-46
2021/05/28 13:08:50;;;;;;;6.65;2.08;;;;;;;;;;4990889;28;20027;-46
2021/05/28 13:11:16;;;;;;;2.90;1.83;;;;;;;;;;4992729;28;20038;-46
2021/05/28 13:13:47;;;;;;;4.88;2.08;;;;;;;;;;4993659;28;20105;-46
2021/05/28 13:16:13;;;;;;;3.28;2.00;;;;;;;;;;4979990;28;20031;-46
2021/05/28 13:18:43;;;;;;;9.13;2.03;;;;;;;;;;4974082;28;20030;-46
2021/05/28 13:21:41;;;;;;;2.10;1.90;;;;;;;;;;4973644;28;20374;-46
2021/05/28 13:24:07;;;;;;;2.42;2.03;;;;;;;;;;4931914;29;20398;-46
2021/05/28 13:26:33;;;;;;;3.30;2.08;;;;;;;;;;4934860;29;20563;-46
2021/05/28 13:29:07;;;;;;;3.30;2.35;;;;;;;;;;4951631;29;20079;-46
2021/05/28 13:31:41;;;;;;;4.95;2.28;;;;;;;;;;4938332;29;20028;-46
2021/05/28 13:34:08;;;;;;;2.50;2.05;;;;;;;;;;4932464;29;20028;-46
2021/05/28 13:36:34;;;;;;;7.80;2.50;;;;;;;;;;4931108;29;20027;-46
2021/05/28 13:39:00;;;;;;;4.22;2.70;;;;;;;;;;4932565;29;20027;-47
2021/05/28 13:41:34;;;;;;;6.30;2.22;;;;;;;;;;4931388;29;20043;-46
2021/05/28 13:44:00;;;;;;;4.30;2.40;;;;;;;;;;4932569;29;20110;-46
2021/05/28 13:46:27;;;;;;;4.88;2.25;;;;;;;;;;4931705;29;20072;-46
2021/05/28 13:48:53;;;;;;;3.83;2.42;;;;;;;;;;4932580;29;20127;-46
2021/05/28 13:51:19;;;;;;;3.20;1.98;;;;;;;;;;4931480;29;20450;-46
2021/05/28 13:53:45;;;;;;;5.55;2.55;;;;;;;;;;4932186;29;20123;-46
2021/05/28 13:56:12;;;;;;;3.72;2.22;;;;;;;;;;4931889;29;20466;-46
2021/05/28 13:58:38;;;;;;;5.10;2.55;;;;;;;;;;4933880;28;20042;-46
2021/05/28 14:01:04;;;;;;;3.42;2.00;;;;;;;;;;4972664;28;20110;-46
2021/05/28 14:03:31;;;;;;;2.97;1.90;;;;;;;;;;4982233;28;20048;-46
2021/05/28 14:05:57;;;;;;;3.80;2.10;;;;;;;;;;4992970;28;20415;-46
2021/05/28 14:08:23;;;;;;;6.32;2.35;;;;;;;;;;4983924;28;20437;-46
2021/05/28 14:10:50;;;;;;;2.45;1.83;;;;;;;;;;4971907;28;20449;-46
2021/05/28 14:13:17;;;;;;;2.47;1.73;;;;;;;;;;4973266;28;20052;-46
2021/05/28 14:15:43;;;;;;;2.40;1.73;;;;;;;;;;4971605;28;20031;-46
2021/05/28 14:18:09;;;;;;;2.30;1.80;;;;;;;;;;4973747;28;20054;-46
2021/05/28 14:20:38;;;;;;;3.72;1.83;;;;;;;;;;4972138;28;20042;-46
2021/05/28 14:23:05;;;;;;;2.95;1.70;;;;;;;;;;4972856;28;20027;-46
2021/05/28 14:25:33;;;;;;;3.25;1.90;;;;;;;;;;4973130;28;20055;-46
2021/05/28 14:27:59;;;;;;;2.10;1.90;;;;;;;;;;4986946;28;20035;-48
2021/05/28 14:30:26;;;;;;;1.88;1.60;;;;;;;;;;4974387;28;20042;-46
2021/05/28 14:32:53;;;;;;;2.42;1.90;;;;;;;;;;4972587;28;20433;-46
2021/05/28 14:35:19;;;;;;;2.95;2.10;;;;;;;;;;4972955;28;20077;-46
2021/05/28 14:37:45;;;;;;;5.32;2.30;;;;;;;;;;4972292;28;20121;-47
2021/05/28 14:40:15;;;;;;;4.07;2.10;;;;;;;;;;4973053;28;20031;-46
2021/05/28 14:42:41;;;;;;;;;;;;;;;;;;4975345;28;20433;-48
2021/05/28 14:45:09;;;;;;;5.45;1.92;;;;;;;;;;4991615;28;19971;-46